Time;durP1;ratioP1;P1;durP2;ratioP2;P2;SDS_P1;SDS_P2;PMS_P1;PMS_P2;Temp;Humidity;BMP_temperature;BMP_pressure;BME280_temperature;BME280_humidity;BME280_pressure;Samples;Min_cycle;Max_cycle;Signal;HPM_P1;HPM_P2
2022/07/21 00:00:27;;;;;;;8.70;7.30;;;;;;;20.49;93.66;100713.56;4996578;28;20425;-71
2022/07/21 00:02:54;;;;;;;10.90;8.93;;;;;;;20.42;93.80;100720.00;4999000;28;20034;-71
2022/07/21 00:05:20;;;;;;;12.10;8.90;;;;;;;20.39;93.40;100718.56;5001780;28;20132;-71
2022/07/21 00:07:46;;;;;;;10.32;8.93;;;;;;;20.35;93.91;100720.00;4999220;28;20465;-71
2022/07/21 00:10:12;;;;;;;10.55;9.27;;;;;;;20.34;93.66;100731.81;5001952;28;20121;-71
2022/07/21 00:12:37;;;;;;;12.05;9.15;;;;;;;20.33;93.96;100714.03;5001244;28;20038;-71
2022/07/21 00:15:03;;;;;;;;;;;;;;;20.33;93.61;100722.06;4998906;28;20441;-70
2022/07/21 00:17:28;;;;;;;13.10;9.40;;;;;;;20.39;93.23;100715.88;4992577;28;19922;-70
2022/07/21 00:19:54;;;;;;;11.27;10.05;;;;;;;20.44;93.06;100721.44;4996231;28;20029;-70
2022/07/21 00:22:19;;;;;;;;;;;;;;;20.47;93.03;100715.63;4992199;28;20422;-71
2022/07/21 00:24:44;;;;;;;11.00;9.80;;;;;;;20.51;92.61;100710.66;4990700;28;20362;-71
2022/07/21 00:27:09;;;;;;;12.07;10.40;;;;;;;20.54;92.02;100716.41;4991995;28;20031;-71
2022/07/21 00:29:35;;;;;;;11.15;9.95;;;;;;;20.52;92.20;100709.63;4998047;28;20439;-70
2022/07/21 00:32:00;;;;;;;13.30;11.10;;;;;;;20.49;92.88;100718.94;4999510;28;20201;-71
2022/07/21 00:34:26;;;;;;;13.07;11.73;;;;;;;20.48;93.15;100735.28;4993205;28;20782;-71
2022/07/21 00:36:51;;;;;;;15.05;11.38;;;;;;;20.45;92.98;100731.16;5000491;28;20045;-71
2022/07/21 00:39:16;;;;;;;14.02;11.65;;;;;;;20.48;92.67;100738.78;4997003;28;20123;-71
2022/07/21 00:41:41;;;;;;;13.55;11.50;;;;;;;20.47;92.92;100739.81;4979564;28;20042;-71
2022/07/21 00:44:19;;;;;;;14.40;11.25;;;;;;;20.51;93.09;100740.22;5000630;28;20406;-73
2022/07/21 00:46:44;;;;;;;13.63;12.05;;;;;;;20.52;93.28;100737.31;4994355;28;20039;-72
2022/07/21 00:49:10;;;;;;;13.90;11.85;;;;;;;20.53;93.08;100749.72;4984196;28;20045;-71
2022/07/21 00:51:35;;;;;;;12.75;10.80;;;;;;;20.54;92.90;100756.72;4993376;28;20042;-71
2022/07/21 00:54:00;;;;;;;12.75;11.07;;;;;;;20.55;93.37;100758.41;4998028;28;20041;-72
2022/07/21 00:56:26;;;;;;;15.50;11.63;;;;;;;20.56;93.55;100769.97;5001411;28;20519;-71
2022/07/21 00:58:51;;;;;;;14.85;12.65;;;;;;;20.60;93.56;100775.78;4993302;28;20041;-72
2022/07/21 01:01:16;;;;;;;13.75;11.68;;;;;;;20.62;93.07;100773.66;4995787;28;20125;-72
2022/07/21 01:03:42;;;;;;;13.27;11.50;;;;;;;20.64;92.85;100782.34;4999649;28;20769;-72
2022/07/21 01:06:07;;;;;;;15.90;12.27;;;;;;;20.61;93.36;100778.22;5001791;28;20030;-72
2022/07/21 01:08:32;;;;;;;14.80;12.32;;;;;;;20.56;93.24;100781.56;4994766;28;20116;-71
2022/07/21 01:10:58;;;;;;;13.57;12.15;;;;;;;20.55;93.75;100785.28;4998625;28;20104;-74
2022/07/21 01:13:23;;;;;;;14.77;11.90;;;;;;;20.60;93.43;100794.59;5000318;28;20089;-72
2022/07/21 01:15:48;;;;;;;15.77;11.60;;;;;;;20.62;93.12;100795.16;5001255;28;20030;-72
2022/07/21 01:18:14;;;;;;;14.48;12.00;;;;;;;20.58;93.67;100798.28;4995196;28;20061;-73
2022/07/21 01:20:44;;;;;;;13.05;11.65;;;;;;;20.63;93.16;100794.97;5000600;28;20424;-72
2022/07/21 01:23:10;;;;;;;13.02;11.60;;;;;;;20.64;92.97;100790.41;4996455;28;20048;-73
2022/07/21 01:25:35;;;;;;;13.70;11.20;;;;;;;20.65;93.04;100797.44;4995264;28;20510;-72
2022/07/21 01:28:00;;;;;;;13.88;10.75;;;;;;;20.71;92.26;100796.59;4996947;28;20038;-72
2022/07/21 01:30:26;;;;;;;11.45;10.32;;;;;;;20.70;92.15;100786.88;4995023;28;20515;-72
2022/07/21 01:32:52;;;;;;;12.02;10.38;;;;;;;20.71;92.08;100800.13;5000513;28;20034;-73
2022/07/21 01:35:17;;;;;;;12.15;10.85;;;;;;;20.70;91.85;100803.00;4997019;28;20561;-73
2022/07/21 01:37:45;;;;;;;12.75;11.10;;;;;;;20.70;92.24;100800.31;4995751;28;20046;-73
2022/07/21 01:42:55;;;;;;;16.83;11.55;;;;;;;20.68;92.26;100807.78;4999819;28;20037;-71
2022/07/21 01:45:22;;;;;;;11.98;10.75;;;;;;;20.69;92.14;100807.56;4998982;28;20038;-71
2022/07/21 01:47:47;;;;;;;14.77;12.00;;;;;;;20.69;92.32;100806.72;4995679;28;20036;-72
2022/07/21 01:50:12;;;;;;;13.98;12.20;;;;;;;20.64;93.00;100803.84;4996383;28;20037;-73
2022/07/21 01:52:38;;;;;;;13.85;11.63;;;;;;;20.65;92.33;100810.88;4992269;28;20031;-73
2022/07/21 01:55:04;;;;;;;13.10;11.38;;;;;;;20.69;92.10;100814.78;4998631;28;20042;-71
2022/07/21 01:57:29;;;;;;;15.35;12.77;;;;;;;20.63;92.98;100816.47;4990954;28;20046;-71
2022/07/21 01:59:55;;;;;;;13.27;11.75;;;;;;;20.66;92.52;100818.72;4998476;28;20518;-71
2022/07/21 02:02:21;;;;;;;14.00;11.95;;;;;;;20.65;92.64;100821.63;4997743;28;20053;-73
2022/07/21 02:04:48;;;;;;;14.40;12.57;;;;;;;20.63;92.63;100829.09;4996266;28;20122;-74
2022/07/21 02:07:13;;;;;;;12.90;11.60;;;;;;;20.63;92.51;100823.72;4992081;28;20460;-73
2022/07/21 02:09:39;;;;;;;17.23;12.60;;;;;;;20.63;92.61;100818.34;4987168;28;20093;-74
2022/07/21 02:12:04;;;;;;;16.80;12.75;;;;;;;20.63;92.52;100824.53;4987103;28;20041;-73
2022/07/21 02:14:30;;;;;;;15.32;12.23;;;;;;;20.62;92.62;100822.03;4985474;28;20073;-71
2022/07/21 02:16:55;;;;;;;16.35;14.00;;;;;;;20.58;93.50;100821.66;4988374;28;20065;-72
2022/07/21 02:19:20;;;;;;;16.27;13.73;;;;;;;20.57;92.94;100817.31;4987562;28;20046;-72
2022/07/21 02:21:46;;;;;;;15.15;13.23;;;;;;;20.58;92.79;100817.09;4986353;28;20296;-72
2022/07/21 02:24:11;;;;;;;16.00;13.20;;;;;;;20.56;92.94;100818.34;4988269;28;20037;-73
2022/07/21 02:26:36;;;;;;;17.40;14.05;;;;;;;20.54;92.97;100818.50;4988858;28;20790;-73
2022/07/21 02:29:02;;;;;;;15.68;13.43;;;;;;;20.54;93.07;100817.69;4988239;28;20533;-72
2022/07/21 02:31:28;;;;;;;17.77;13.88;;;;;;;20.56;92.98;100818.34;4988797;28;20041;-73
2022/07/21 02:33:53;;;;;;;17.73;13.63;;;;;;;20.57;92.94;100823.53;4990099;28;20483;-72
2022/07/21 02:36:18;;;;;;;15.73;13.83;;;;;;;20.57;93.13;100826.19;4989347;28;20042;-72
2022/07/21 02:38:43;;;;;;;14.40;12.15;;;;;;;20.59;92.65;100823.28;4988212;28;20933;-71
2022/07/21 02:41:09;;;;;;;16.13;13.37;;;;;;;20.61;92.58;100825.78;4990562;28;20046;-70
2022/07/21 02:43:34;;;;;;;16.20;12.40;;;;;;;20.63;92.33;100823.72;4990384;28;20813;-71
2022/07/21 02:45:59;;;;;;;14.18;12.68;;;;;;;20.65;92.19;100827.84;4988518;28;20184;-71
2022/07/21 02:48:25;;;;;;;12.35;10.68;;;;;;;20.68;91.73;100842.69;4993703;28;20046;-71
2022/07/21 02:50:50;;;;;;;13.27;11.55;;;;;;;20.71;91.45;100834.22;5000601;28;20116;-71
2022/07/21 02:53:19;;;;;;;15.53;13.50;;;;;;;20.73;91.44;100832.97;4982799;28;20030;-71
2022/07/21 02:55:45;;;;;;;16.73;13.77;;;;;;;20.73;91.60;100837.53;4990968;28;20984;-71
2022/07/21 02:58:12;;;;;;;17.38;14.63;;;;;;;20.74;91.76;100848.06;4988330;28;20049;-72
2022/07/21 03:00:44;;;;;;;15.32;13.73;;;;;;;20.73;91.88;100849.09;4996947;28;20092;-71
2022/07/21 03:03:10;;;;;;;15.48;13.60;;;;;;;20.74;91.73;100855.31;4988467;28;20034;-71
2022/07/21 03:05:36;;;;;;;15.23;13.73;;;;;;;20.73;92.02;100853.63;4995686;28;20133;-71
2022/07/21 03:08:03;;;;;;;17.33;14.68;;;;;;;20.71;92.09;100853.03;4996369;28;20029;-72
2022/07/21 03:10:28;;;;;;;16.30;13.43;;;;;;;20.71;91.82;100856.56;5003707;28;20062;-71
2022/07/21 03:12:54;;;;;;;16.25;13.68;;;;;;;20.71;91.76;100850.34;5004674;28;20265;-71
2022/07/21 03:15:20;;;;;;;16.45;14.45;;;;;;;20.66;92.13;100848.28;4997561;28;20040;-71
2022/07/21 03:17:45;;;;;;;17.75;14.73;;;;;;;20.67;91.92;100854.50;4980200;28;20054;-71
2022/07/21 03:20:11;;;;;;;14.93;12.73;;;;;;;20.69;91.64;100852.41;5002364;28;20034;-71
2022/07/21 03:22:36;;;;;;;12.52;11.23;;;;;;;20.71;91.61;100851.19;5001555;28;20042;-71
2022/07/21 03:25:02;;;;;;;15.93;14.23;;;;;;;20.72;91.82;100843.94;4982279;28;20455;-71
2022/07/21 03:27:27;;;;;;;15.93;14.18;;;;;;;20.72;91.86;100852.00;5003918;28;20434;-71
2022/07/21 03:29:53;;;;;;;15.07;13.48;;;;;;;20.72;91.51;100852.81;4993567;28;20031;-71
2022/07/21 03:32:18;;;;;;;14.33;12.37;;;;;;;20.72;91.60;100857.38;4999688;28;20064;-72
2022/07/21 03:34:45;;;;;;;15.20;13.60;;;;;;;20.73;91.42;100856.34;4998407;28;20445;-72
2022/07/21 03:37:10;;;;;;;16.33;13.52;;;;;;;20.73;91.12;100859.03;5003190;28;20053;-72
2022/07/21 03:39:36;;;;;;;15.68;13.13;;;;;;;20.70;91.33;100859.44;5000307;28;20041;-71
2022/07/21 03:42:01;;;;;;;16.67;13.47;;;;;;;20.69;91.26;100865.84;4997361;28;20088;-71
2022/07/21 03:44:27;;;;;;;17.02;13.48;;;;;;;20.65;91.59;100853.88;4978238;28;20273;-71
2022/07/21 03:46:52;;;;;;;15.38;13.68;;;;;;;20.63;91.97;100856.78;5009428;28;20026;-70
2022/07/21 03:49:17;;;;;;;14.40;12.90;;;;;;;20.65;91.42;100867.31;4997709;28;20038;-72
2022/07/21 03:51:43;;;;;;;13.85;12.43;;;;;;;20.65;91.55;100860.06;4994900;28;20038;-72
2022/07/21 03:54:08;;;;;;;14.10;12.60;;;;;;;20.67;91.25;100867.94;5005078;28;20283;-72
2022/07/21 03:56:33;;;;;;;13.17;11.80;;;;;;;20.68;91.30;100864.19;4994311;28;20038;-71
2022/07/21 03:58:58;;;;;;;14.95;13.23;;;;;;;20.67;91.84;100865.25;4980694;28;20317;-71
2022/07/21 04:01:24;;;;;;;17.97;14.70;;;;;;;20.65;92.28;100870.81;4999151;28;20398;-72
2022/07/21 04:03:49;;;;;;;18.52;14.27;;;;;;;20.67;91.70;100860.69;5002153;28;20380;-73
2022/07/21 04:06:14;;;;;;;15.10;12.82;;;;;;;20.72;91.50;100862.75;4995958;28;20041;-71
2022/07/21 04:08:40;;;;;;;17.40;13.77;;;;;;;20.79;91.45;100877.00;4997380;28;20479;-71
2022/07/21 04:11:05;;;;;;;15.07;13.40;;;;;;;20.82;91.33;100875.75;4982628;28;20297;-72
2022/07/21 04:13:31;;;;;;;15.45;13.75;;;;;;;20.83;91.15;100872.00;4992917;28;20572;-73
2022/07/21 04:15:56;;;;;;;14.35;12.90;;;;;;;20.88;90.91;100869.50;4995180;28;20038;-71
2022/07/21 04:18:21;;;;;;;15.38;13.68;;;;;;;20.88;90.85;100869.50;4993497;28;20041;-72
2022/07/21 04:20:47;;;;;;;15.88;13.00;;;;;;;20.91;90.62;100869.13;4995979;28;20030;-72
2022/07/21 04:23:12;;;;;;;13.65;11.65;;;;;;;20.95;90.22;100868.47;4999673;28;20064;-72
2022/07/21 04:25:38;;;;;;;15.43;13.48;;;;;;;20.98;90.23;100875.28;4992798;28;20038;-71
2022/07/21 04:28:05;;;;;;;12.32;10.90;;;;;;;21.02;90.16;100881.06;4995722;28;20038;-72
2022/07/21 04:30:30;;;;;;;10.30;9.30;;;;;;;21.03;89.46;100874.66;4998268;28;20042;-71
2022/07/21 04:32:55;;;;;;;12.00;10.73;;;;;;;21.03;88.91;100880.84;4993598;28;20046;-71
2022/07/21 04:35:21;;;;;;;15.90;10.82;;;;;;;21.05;88.06;100880.66;5003829;28;20037;-71
2022/07/21 04:37:47;;;;;;;9.80;8.80;;;;;;;21.08;87.05;100878.34;5003092;28;20037;-71
2022/07/21 04:40:13;;;;;;;8.55;7.65;;;;;;;21.13;86.66;100883.09;5002400;28;20045;-71
2022/07/21 04:42:40;;;;;;;9.82;8.10;;;;;;;21.11;85.58;100883.28;4996569;28;20046;-72
2022/07/21 04:45:07;;;;;;;8.82;7.15;;;;;;;21.11;85.17;100885.16;4998835;28;20065;-72
2022/07/21 04:47:32;;;;;;;8.52;6.50;;;;;;;21.09;84.84;100879.16;4996785;28;20038;-72
2022/07/21 04:49:58;;;;;;;6.85;5.80;;;;;;;21.05;84.83;100875.28;5001587;28;20038;-72
2022/07/21 04:52:23;;;;;;;7.50;6.07;;;;;;;21.01;84.36;100877.56;4987122;28;20054;-72
2022/07/21 04:54:48;;;;;;;6.75;6.05;;;;;;;20.95;84.29;100873.84;5003387;28;20109;-70
2022/07/21 04:57:14;;;;;;;6.70;5.85;;;;;;;20.86;84.58;100880.50;4995905;28;20050;-71
2022/07/21 04:59:39;;;;;;;7.68;6.85;;;;;;;20.81;84.92;100888.38;5001554;28;20065;-71
2022/07/21 05:02:05;;;;;;;8.23;7.13;;;;;;;20.91;84.97;100894.13;5001232;28;20571;-71
2022/07/21 05:04:30;;;;;;;8.35;7.35;;;;;;;21.09;85.16;100900.69;5002770;28;20088;-71
2022/07/21 05:06:56;;;;;;;7.60;6.80;;;;;;;21.24;84.43;100903.97;5000999;28;20062;-71
2022/07/21 05:09:21;;;;;;;9.35;7.32;;;;;;;21.33;83.56;100913.44;4995631;28;20048;-72
2022/07/21 05:11:47;;;;;;;9.80;7.65;;;;;;;21.44;82.54;100917.34;4994919;28;20134;-71
2022/07/21 05:14:12;;;;;;;7.32;6.57;;;;;;;21.55;82.44;100922.06;4994640;28;20121;-71
2022/07/21 05:16:37;;;;;;;7.43;6.45;;;;;;;21.65;81.93;100912.69;5000925;28;20593;-71
2022/07/21 05:19:03;;;;;;;7.43;6.43;;;;;;;21.74;81.67;100914.91;4996403;28;20030;-70
2022/07/21 05:21:28;;;;;;;8.75;7.05;;;;;;;21.89;80.83;100914.59;5003987;28;20045;-68
2022/07/21 05:23:53;;;;;;;8.93;8.02;;;;;;;22.01;80.20;100920.94;5013387;28;20032;-69
2022/07/21 05:26:19;;;;;;;10.05;8.40;;;;;;;22.06;79.39;100917.59;5011484;28;20418;-68
2022/07/21 05:28:44;;;;;;;8.15;7.28;;;;;;;22.18;78.94;100917.72;5009404;28;20061;-69
2022/07/21 05:31:10;;;;;;;9.43;7.22;;;;;;;22.31;78.12;100916.81;5010695;28;20026;-68
2022/07/21 05:33:36;;;;;;;8.30;6.68;;;;;;;22.49;77.37;100919.56;4987515;28;20045;-68
2022/07/21 05:36:02;;;;;;;9.18;6.22;;;;;;;22.65;77.11;100919.00;5012470;28;20042;-68
2022/07/21 05:38:27;;;;;;;9.63;8.10;;;;;;;22.80;76.68;100912.44;4986757;28;20027;-68
2022/07/21 05:40:53;;;;;;;9.55;8.05;;;;;;;22.86;77.03;100906.16;4974795;28;20046;-68
2022/07/21 05:43:18;;;;;;;13.02;10.82;;;;;;;22.93;76.97;100923.09;4976129;28;20038;-69
2022/07/21 05:45:43;;;;;;;13.38;10.85;;;;;;;22.88;76.56;100915.66;4984150;28;20550;-70
2022/07/21 05:48:09;;;;;;;12.65;10.35;;;;;;;22.91;76.42;100914.41;4990918;28;20033;-71
2022/07/21 05:50:34;;;;;;;12.00;10.52;;;;;;;22.88;75.60;100899.50;4979731;28;20035;-71
2022/07/21 05:52:59;;;;;;;11.55;9.93;;;;;;;22.83;75.75;100914.69;4969718;28;20042;-71
2022/07/21 05:55:24;;;;;;;12.30;10.20;;;;;;;22.79;74.56;100906.22;4975113;28;20039;-70
2022/07/21 05:57:50;;;;;;;9.70;8.65;;;;;;;22.85;74.42;100915.28;4970269;28;20293;-72
2022/07/21 06:00:16;;;;;;;10.63;8.05;;;;;;;22.83;73.27;100909.28;4983370;28;20137;-71
2022/07/21 06:02:42;;;;;;;11.32;8.32;;;;;;;22.79;73.38;100914.31;4989822;28;20042;-71
2022/07/21 06:05:10;;;;;;;9.55;8.02;;;;;;;22.62;73.52;100915.91;4988988;28;20038;-71
2022/07/21 06:07:35;;;;;;;9.00;7.95;;;;;;;22.44;73.65;100924.78;4980924;28;20036;-71
2022/07/21 06:10:01;;;;;;;10.00;8.47;;;;;;;22.30;73.68;100920.56;4973391;28;20030;-70
2022/07/21 06:12:27;;;;;;;8.65;7.75;;;;;;;22.53;73.72;100919.97;4989135;28;20346;-70
2022/07/21 06:14:52;;;;;;;7.90;7.00;;;;;;;22.77;73.81;100919.09;4985204;28;20078;-70
2022/07/21 06:17:17;;;;;;;8.80;7.13;;;;;;;22.98;73.21;100923.28;4989749;28;20035;-70
2022/07/21 06:19:42;;;;;;;8.30;6.77;;;;;;;23.32;72.95;100926.41;4985685;28;20042;-71
2022/07/21 06:22:08;;;;;;;9.33;6.70;;;;;;;23.59;70.55;100926.88;5014624;22;20309;-68
2022/07/21 06:24:33;;;;;;;9.13;7.68;;;;;;;23.92;68.49;100923.75;5008014;28;20307;-66
2022/07/21 06:26:58;;;;;;;7.95;6.28;;;;;;;24.22;67.70;100933.69;5009384;28;20022;-67
2022/07/21 06:29:24;;;;;;;6.85;6.15;;;;;;;24.25;66.60;100938.63;5009240;28;20275;-65
2022/07/21 06:31:50;;;;;;;6.65;5.72;;;;;;;24.22;66.05;100932.84;5009319;28;20398;-66
2022/07/21 06:34:15;;;;;;;7.35;6.07;;;;;;;24.16;65.97;100935.41;5008706;28;20060;-69
2022/07/21 06:36:41;;;;;;;5.95;5.28;;;;;;;24.31;65.68;100934.16;5009460;28;20038;-67
2022/07/21 06:39:06;;;;;;;8.45;5.55;;;;;;;24.32;65.70;100933.13;5009550;28;20030;-69
2022/07/21 06:41:31;;;;;;;6.38;5.75;;;;;;;24.43;64.76;100934.16;5008666;28;20044;-66
2022/07/21 06:43:57;;;;;;;6.90;5.55;;;;;;;24.73;63.72;100942.22;5001617;28;20030;-68
2022/07/21 06:46:22;;;;;;;7.38;5.55;;;;;;;25.03;61.90;100947.50;5027421;28;20036;-67
2022/07/21 06:48:47;;;;;;;6.75;5.30;;;;;;;25.18;61.84;100953.25;5041031;28;20543;-67
2022/07/21 06:51:13;;;;;;;6.43;5.57;;;;;;;25.10;61.54;100950.91;5031852;28;20029;-67
2022/07/21 06:53:38;;;;;;;6.43;4.93;;;;;;;25.10;61.76;100944.63;5038233;28;20053;-66
2022/07/21 06:56:03;;;;;;;6.45;5.15;;;;;;;25.29;61.44;100951.59;5032259;28;20041;-67
2022/07/21 06:58:29;;;;;;;6.80;5.50;;;;;;;25.42;60.98;100951.31;5032515;28;20033;-66
2022/07/21 07:00:54;;;;;;;6.63;5.40;;;;;;;25.53;59.94;100955.06;5032083;28;20213;-66
2022/07/21 07:03:20;;;;;;;6.40;5.70;;;;;;;25.51;59.24;100957.16;5032319;28;20536;-66
2022/07/21 07:05:47;;;;;;;5.75;4.65;;;;;;;25.67;59.17;100958.31;5033342;28;20497;-66
2022/07/21 07:08:13;;;;;;;6.45;5.22;;;;;;;25.97;59.28;100963.47;5037435;28;20045;-67
2022/07/21 07:10:41;;;;;;;7.10;5.82;;;;;;;25.74;58.24;100961.69;5032298;28;20033;-69
2022/07/21 07:13:07;;;;;;;7.32;5.78;;;;;;;25.46;58.66;100958.94;5032506;28;20121;-66
2022/07/21 07:15:33;;;;;;;7.53;5.30;;;;;;;25.57;59.68;100958.09;5032409;28;20029;-67
2022/07/21 07:17:59;;;;;;;7.03;5.80;;;;;;;25.53;59.10;100960.47;5033226;28;20527;-67
2022/07/21 07:20:24;;;;;;;9.07;6.03;;;;;;;25.23;58.91;100970.66;5031910;28;20125;-67
2022/07/21 07:22:49;;;;;;;7.47;5.60;;;;;;;25.48;59.46;100963.06;5031502;28;20034;-67
2022/07/21 07:25:17;;;;;;;7.95;5.25;;;;;;;25.89;58.63;100966.59;5032626;28;20280;-68
2022/07/21 07:27:43;;;;;;;5.70;5.03;;;;;;;26.22;57.42;100965.00;5031982;28;20497;-67
2022/07/21 07:30:09;;;;;;;5.57;4.38;;;;;;;26.54;55.70;100956.31;5031415;28;20040;-67
2022/07/21 07:32:35;;;;;;;5.90;4.50;;;;;;;27.13;56.05;100963.97;5031846;28;20041;-67
2022/07/21 07:35:00;;;;;;;5.90;4.50;;;;;;;27.79;53.67;100961.22;5032056;28;20421;-67
2022/07/21 07:37:25;;;;;;;6.40;4.85;;;;;;;28.02;51.14;100976.44;5031520;28;20470;-68
2022/07/21 07:39:51;;;;;;;6.65;4.97;;;;;;;27.63;50.19;100960.25;5038869;28;20430;-67
2022/07/21 07:42:16;;;;;;;6.47;5.37;;;;;;;27.03;51.57;100964.63;5030643;28;20079;-67
2022/07/21 07:44:41;;;;;;;6.80;5.28;;;;;;;26.82;52.50;100966.25;5034079;28;20818;-67
2022/07/21 07:47:06;;;;;;;6.20;4.93;;;;;;;26.73;52.65;100968.56;5033429;28;20041;-67
2022/07/21 07:49:32;;;;;;;8.93;4.80;;;;;;;26.75;52.77;100973.75;5039600;28;20048;-66
2022/07/21 07:51:58;;;;;;;5.65;4.40;;;;;;;27.14;52.70;100969.13;5007901;28;20251;-68
2022/07/21 07:54:24;;;;;;;5.93;5.07;;;;;;;27.43;52.57;100969.78;5036230;28;20042;-67
2022/07/21 07:56:49;;;;;;;5.13;4.53;;;;;;;27.39;51.52;100970.53;5031656;28;20489;-67
2022/07/21 07:59:15;;;;;;;4.65;4.03;;;;;;;27.69;51.36;100967.34;5013886;28;20386;-68
2022/07/21 08:01:40;;;;;;;6.90;4.57;;;;;;;28.11;50.09;100966.72;5031409;28;20566;-66
2022/07/21 08:04:05;;;;;;;6.57;4.43;;;;;;;28.11;50.60;100974.88;5030659;28;20536;-68
2022/07/21 08:06:31;;;;;;;6.25;4.30;;;;;;;28.36;50.11;100974.28;5034249;28;20072;-69
2022/07/21 08:08:56;;;;;;;7.05;4.60;;;;;;;28.49;49.08;100976.59;5031812;28;20228;-69
2022/07/21 08:11:22;;;;;;;8.13;5.10;;;;;;;28.33;48.92;100962.00;5030991;28;20489;-67
2022/07/21 08:13:47;;;;;;;7.25;4.88;;;;;;;28.49;49.21;100963.00;5039984;28;20128;-68
2022/07/21 08:16:15;;;;;;;6.57;4.90;;;;;;;28.84;48.35;100975.22;5021479;28;20041;-67
2022/07/21 08:18:43;;;;;;;6.00;4.40;;;;;;;29.28;46.95;100966.75;5039636;28;20036;-69
2022/07/21 08:21:09;;;;;;;6.40;4.40;;;;;;;29.80;46.21;100959.56;5030707;28;20036;-67
2022/07/21 08:23:35;;;;;;;5.60;4.32;;;;;;;30.49;45.48;100966.47;5031360;28;20124;-69
2022/07/21 08:26:00;;;;;;;5.40;3.78;;;;;;;31.07;44.06;100966.88;5031446;28;20472;-67
2022/07/21 08:28:26;;;;;;;5.85;4.53;;;;;;;31.42;42.72;100962.41;5030938;28;20041;-66
2022/07/21 08:30:51;;;;;;;5.78;4.40;;;;;;;31.78;40.85;100962.22;5033338;28;20028;-66
2022/07/21 08:33:17;;;;;;;5.97;4.38;;;;;;;31.33;41.61;100966.78;5037537;28;20052;-67
2022/07/21 08:35:42;;;;;;;5.93;4.95;;;;;;;30.53;42.42;100962.06;5039701;28;20046;-67
2022/07/21 08:38:11;;;;;;;5.82;4.68;;;;;;;30.41;43.34;100965.06;5020377;28;20068;-67
2022/07/21 08:40:40;;;;;;;5.68;4.80;;;;;;;30.83;42.54;100968.59;5037419;28;20029;-67
2022/07/21 08:43:08;;;;;;;5.00;4.00;;;;;;;30.31;43.28;100964.28;5033839;28;20029;-66
2022/07/21 08:45:34;;;;;;;6.47;4.45;;;;;;;30.69;43.23;100960.94;5031760;28;20378;-67
2022/07/21 08:48:00;;;;;;;7.78;5.00;;;;;;;30.50;42.99;100953.63;5031535;28;20409;-66
2022/07/21 08:50:30;;;;;;;6.32;4.60;;;;;;;30.10;43.62;100960.69;5032387;28;20042;-65
2022/07/21 08:52:56;;;;;;;4.65;4.15;;;;;;;30.65;42.38;100959.88;5034954;28;20041;-65
2022/07/21 08:55:22;;;;;;;5.22;4.60;;;;;;;31.61;41.05;100965.31;5033025;28;20072;-65
2022/07/21 08:57:47;;;;;;;5.90;4.90;;;;;;;31.49;40.65;100952.00;5040261;28;20042;-66
2022/07/21 09:00:13;;;;;;;5.85;4.60;;;;;;;30.80;41.80;100944.56;5032460;28;20382;-67
2022/07/21 09:02:38;;;;;;;6.18;5.15;;;;;;;31.47;41.39;100943.25;5012880;28;20120;-67
2022/07/21 09:05:08;;;;;;;5.10;4.10;;;;;;;32.42;39.67;100952.16;5029501;28;20041;-66
2022/07/21 09:07:55;;;;;;;6.20;4.40;;;;;;;32.72;37.86;100953.78;5036068;28;20505;-66
2022/07/21 09:10:26;;;;;;;7.20;4.63;;;;;;;31.57;39.39;100947.84;5031159;28;20033;-66
2022/07/21 09:12:55;;;;;;;5.60;5.00;;;;;;;30.49;41.44;100941.91;5029681;28;20037;-67
2022/07/21 09:15:22;;;;;;;5.82;4.78;;;;;;;31.04;41.03;100939.34;5012289;28;20390;-65
2022/07/21 09:18:05;;;;;;;6.55;4.70;;;;;;;32.19;38.46;100942.78;5029736;28;20563;-66
2022/07/21 09:20:30;;;;;;;5.60;4.22;;;;;;;31.55;39.53;100927.34;5009672;28;20061;-66
2022/07/21 09:23:10;;;;;;;7.15;4.75;;;;;;;31.98;39.68;100931.19;5009621;28;20109;-66
2022/07/21 09:25:40;;;;;;;;;;;;;;;32.52;37.33;100934.84;5009743;28;20463;-67
2022/07/21 09:28:21;;;;;;;5.47;4.60;;;;;;;31.98;38.31;100935.84;5008947;28;20110;-67
2022/07/21 09:31:07;;;;;;;5.40;4.35;;;;;;;31.24;39.53;100938.41;5007076;28;20131;-65
2022/07/21 09:33:36;;;;;;;5.47;4.10;;;;;;;31.07;40.64;100936.84;4999845;28;20508;-66
2022/07/21 09:36:10;;;;;;;4.55;4.03;;;;;;;31.82;40.30;100943.28;5009166;28;20050;-66
2022/07/21 09:38:41;;;;;;;5.93;4.70;;;;;;;31.79;39.63;100941.13;5008898;28;20045;-66
2022/07/21 09:41:21;;;;;;;5.50;4.20;;;;;;;31.77;40.42;100946.06;4996184;28;20053;-65
2022/07/21 09:43:48;;;;;;;5.82;4.68;;;;;;;33.15;37.67;100945.63;5000596;28;20061;-66
2022/07/21 09:46:13;;;;;;;5.07;4.30;;;;;;;34.68;35.99;100938.91;5008554;28;20169;-66
2022/07/21 09:48:41;;;;;;;4.87;4.37;;;;;;;34.98;34.83;100934.75;5007384;28;20428;-66
2022/07/21 09:51:28;;;;;;;4.75;4.10;;;;;;;35.61;33.98;100938.69;5009063;28;20380;-66
2022/07/21 09:54:16;;;;;;;6.85;4.95;;;;;;;36.92;31.73;100944.97;5006413;28;20046;-66
2022/07/21 09:56:45;;;;;;;5.20;4.60;;;;;;;37.43;30.92;100943.50;4997065;28;20044;-66
2022/07/21 09:59:12;;;;;;;5.38;4.47;;;;;;;37.78;29.74;100940.75;5007317;28;20037;-67
2022/07/21 10:01:38;;;;;;;8.95;4.57;;;;;;;37.93;28.64;100944.97;5008307;28;20042;-68
2022/07/21 10:04:04;;;;;;;5.70;4.05;;;;;;;38.28;28.55;100942.16;4996629;28;20069;-67
2022/07/21 10:06:38;;;;;;;6.43;3.83;;;;;;;36.93;29.75;100944.66;4994300;28;20042;-68
2022/07/21 10:09:08;;;;;;;6.25;4.32;;;;;;;36.08;31.38;100939.16;5000896;28;20041;-67
2022/07/21 10:11:34;;;;;;;4.75;4.10;;;;;;;36.02;31.18;100932.19;5008032;28;20041;-67
2022/07/21 10:13:59;;;;;;;5.68;3.83;;;;;;;34.95;32.59;100935.38;5008694;28;20549;-67
2022/07/21 10:16:25;;;;;;;4.38;3.63;;;;;;;34.92;33.11;100929.66;5007822;28;20402;-67
2022/07/21 10:19:02;;;;;;;3.97;3.58;;;;;;;36.03;29.95;100927.47;5008090;28;20502;-68
2022/07/21 10:21:50;;;;;;;4.50;3.10;;;;;;;35.29;30.09;100923.13;5008184;28;20069;-67
2022/07/21 10:24:16;;;;;;;4.80;3.22;;;;;;;35.47;30.57;100924.13;5003531;28;20038;-67
2022/07/21 10:27:06;;;;;;;4.03;3.40;;;;;;;34.92;31.36;100926.91;5008591;28;20085;-65
2022/07/21 10:29:52;;;;;;;4.00;3.22;;;;;;;35.00;30.68;100918.78;5008400;28;20041;-65
2022/07/21 10:32:25;;;;;;;3.40;2.65;;;;;;;36.64;29.37;100920.41;5007543;28;20092;-66
2022/07/21 10:34:51;;;;;;;4.60;3.83;;;;;;;37.63;27.24;100916.41;5007548;28;20068;-66
2022/07/21 10:37:38;;;;;;;4.90;3.42;;;;;;;38.25;25.79;100910.47;5008383;28;20053;-66
2022/07/21 10:40:05;;;;;;;3.72;2.65;;;;;;;38.71;24.99;100906.09;5004350;28;20113;-67
2022/07/21 10:42:30;;;;;;;4.43;3.35;;;;;;;39.41;25.11;100917.56;5003764;28;20117;-67
2022/07/21 10:44:55;;;;;;;5.03;3.03;;;;;;;40.15;24.18;100905.97;5004669;28;20109;-67
2022/07/21 10:47:25;;;;;;;4.90;3.15;;;;;;;40.65;22.79;100902.91;5008471;28;20038;-68
2022/07/21 10:49:54;;;;;;;4.32;2.78;;;;;;;40.19;23.55;100915.19;5008464;28;20144;-67
2022/07/21 10:52:35;;;;;;;4.57;2.75;;;;;;;38.10;25.31;100903.53;5002447;28;20044;-68
2022/07/21 10:55:09;;;;;;;3.58;2.75;;;;;;;36.22;26.39;100903.34;5007250;28;20034;-69
2022/07/21 10:57:34;;;;;;;3.03;2.50;;;;;;;34.77;28.29;100903.31;5008631;28;20072;-66
2022/07/21 11:00:23;;;;;;;4.63;2.80;;;;;;;33.81;29.18;100899.22;5010307;28;20029;-66
2022/07/21 11:02:59;;;;;;;3.45;2.67;;;;;;;33.25;30.75;100908.25;5008612;28;20058;-66
2022/07/21 11:05:27;;;;;;;3.40;2.63;;;;;;;32.60;31.48;100906.00;5008363;28;20111;-66
2022/07/21 11:08:18;;;;;;;4.63;3.50;;;;;;;31.86;32.17;100909.63;5007297;28;20407;-67
2022/07/21 11:10:48;;;;;;;;;;;;;;;31.25;33.75;100904.53;5008396;28;20061;-66
2022/07/21 11:13:15;;;;;;;4.87;3.60;;;;;;;30.92;34.51;100904.13;5007845;28;19928;-68
2022/07/21 11:15:56;;;;;;;4.35;3.30;;;;;;;30.57;34.82;100907.75;5006607;28;20049;-67
2022/07/21 11:18:26;;;;;;;4.20;3.40;;;;;;;30.57;35.02;100896.84;5007866;28;20081;-66
2022/07/21 11:21:13;;;;;;;3.25;2.90;;;;;;;30.99;34.97;100898.38;5006065;28;20050;-67